Solidarnosc (vanuatu) — YJZC9 — position and weather

sailwx.info

Track history (hours):
 
Tides and Currents Weather Stations Pressure Air Temp Water Temp Dewpoint Dewpoint Depression Visibility Wind Speed Wind Dir Waves Ship Positions

Solidarnosc (vanuatu)

Last reported at 2015-Aug-03 19:33 UTC. Time now 2015-Aug-04 07:27 UTC.
Position N 03°07' E 100°43'.

Length 229 m; beam 32 m.

Type: Ship. MMSI: 576005000.

Date/timePositionNaut miles runAvg speedWind from/ knotsBaromVisibWave heightAir tempDewpointWater temp
2015-Aug-03 19:33N 03°07' E 100°43'1313.2
2015-Aug-03 18:33N 02°57' E 100°52'1313.5
2015-Aug-03 17:33N 02°49' E 101°02'1313.0
2015-Aug-03 16:33N 02°43' E 101°14'2211.2
2015-Aug-03 14:33N 02°31' E 101°34'15311.7
2015-Aug-03 01:30N 01°09' E 103°43'9 9.8
2015-Aug-03 00:33N 01°12' E 103°51'10 9.7
2015-Aug-02 23:33N 01°15' E 104°00'5 5.3
2015-Aug-02 22:33N 01°18' E 104°05'0 0.1
2015-Aug-02 21:06N 01°18' E 104°05'0 0.0
2015-Aug-02 20:15N 01°18' E 104°05'0 0.0
2015-Aug-02 19:27N 01°18' E 104°05'0 0.1
2015-Aug-02 18:30N 01°18' E 104°05'0 0.0
2015-Aug-02 12:18N 01°18' E 104°05'2 2.1
2015-Aug-02 11:33N 01°17' E 104°06'5 5.1
2015-Aug-02 10:32N 01°18' E 104°11'  
2015-Jul-28 08:33N 22°07' E 113°48'10 9.7
2015-Jul-28 07:33N 22°17' E 113°48'1212.0
2015-Jul-28 06:33N 22°29' E 113°45'1412.6
2015-Jul-28 05:29N 22°42' E 113°41'1111.5
2015-Jul-28 04:32N 22°51' E 113°34'8 8.0
2015-Jul-28 03:33N 22°58' E 113°33'0 0.0
2015-Jul-28 02:09N 22°58' E 113°33'0 0.0
2015-Jul-28 01:15N 22°58' E 113°33'0 0.0
2015-Jul-28 00:33N 22°58' E 113°33'0 0.0
2015-Jul-27 23:27N 22°58' E 113°33'0 0.0
2015-Jul-27 22:33N 22°58' E 113°33'0 0.0
2015-Jul-27 21:33N 22°58' E 113°33'0 0.0
2015-Jul-27 20:27N 22°58' E 113°33'0 0.0
2015-Jul-27 19:33N 22°58' E 113°33'0 0.0
2015-Jul-27 18:09N 22°58' E 113°33'0 0.0
2015-Jul-27 17:21N 22°58' E 113°33'0 0.0
2015-Jul-27 16:27N 22°58' E 113°33'0 0.0
2015-Jul-27 14:33N 22°58' E 113°33'0 0.0
2015-Jul-27 13:33N 22°58' E 113°33'0 0.0
2015-Jul-27 12:33N 22°58' E 113°33'0 0.0
2015-Jul-27 11:33N 22°58' E 113°33'0 0.0
2015-Jul-27 10:33N 22°58' E 113°33'0 0.0
2015-Jul-27 09:27N 22°58' E 113°33'0 0.0
2015-Jul-27 07:21N 22°58' E 113°33'0 0.1
2015-Jul-27 06:27N 22°58' E 113°33'0 0.0
2015-Jul-27 05:33N 22°58' E 113°33'0 0.0
2015-Jul-27 04:33N 22°58' E 113°33'0 0.0
2015-Jul-27 03:33N 22°58' E 113°33'0 0.0
2015-Jul-27 02:21N 22°58' E 113°33'0 0.0
2015-Jul-27 01:33N 22°58' E 113°33'0 0.0
2015-Jul-27 00:33N 22°58' E 113°33'0 0.0
2015-Jul-26 23:15N 22°58' E 113°33'0 0.0
2015-Jul-26 22:15N 22°58' E 113°33'0 0.1
2015-Jul-26 21:33N 22°58' E 113°33'0 0.1
2015-Jul-26 20:33N 22°58' E 113°33'0 0.0
2015-Jul-26 19:33N 22°58' E 113°33'0 0.0
2015-Jul-26 18:33N 22°58' E 113°33'0 0.0
2015-Jul-26 17:33N 22°58' E 113°33'0 0.0
2015-Jul-26 16:27N 22°58' E 113°33'0 0.0
2015-Jul-26 15:33N 22°58' E 113°33'0 0.1
2015-Jul-26 14:27N 22°58' E 113°33'0 0.1
2015-Jul-26 13:27N 22°58' E 113°33'0 0.0
2015-Jul-26 12:33N 22°58' E 113°33'0 0.0
2015-Jul-26 11:33N 22°58' E 113°33'0 0.0
2015-Jul-26 10:27N 22°58' E 113°33'0 0.0
2015-Jul-26 09:27N 22°58' E 113°33'0 0.0
2015-Jul-26 08:33N 22°58' E 113°33'0 0.0
2015-Jul-26 07:33N 22°58' E 113°33'0 0.0
2015-Jul-26 06:33N 22°58' E 113°33'0 0.0
2015-Jul-26 05:33N 22°58' E 113°33'0 0.0
2015-Jul-26 04:27N 22°58' E 113°33'0 0.0
2015-Jul-26 03:27N 22°58' E 113°33'0 0.0
2015-Jul-26 02:33N 22°58' E 113°33'0 0.0
2015-Jul-26 01:33N 22°58' E 113°33'0 0.1
2015-Jul-26 00:27N 22°58' E 113°33'0 0.1
2015-Jul-25 23:33N 22°58' E 113°33'0 0.0
2015-Jul-25 22:33N 22°58' E 113°33'0 0.0
2015-Jul-25 21:27N 22°58' E 113°33'0 0.0
2015-Jul-25 20:33N 22°58' E 113°33'0 0.0
2015-Jul-25 19:33N 22°58' E 113°33'0 0.0
2015-Jul-25 18:27N 22°58' E 113°33'0 0.0
2015-Jul-25 17:09N 22°58' E 113°33'0 0.0
2015-Jul-25 16:27N 22°58' E 113°33'0 0.0
2015-Jul-25 15:33N 22°58' E 113°33'0 0.1
2015-Jul-25 14:33N 22°58' E 113°33'0 0.1
2015-Jul-25 13:27N 22°58' E 113°33'0 0.0
2015-Jul-25 12:27N 22°58' E 113°33'0 0.0
2015-Jul-25 11:33N 22°58' E 113°33'0 0.0
2015-Jul-25 10:15N 22°58' E 113°33'0 0.0
2015-Jul-25 09:33N 22°58' E 113°33'0 0.0
2015-Jul-25 08:21N 22°58' E 113°33'0 0.0
2015-Jul-25 07:27N 22°58' E 113°33'0 0.0
2015-Jul-25 06:27N 22°58' E 113°33'0 0.0
2015-Jul-25 05:33N 22°58' E 113°33'0 0.0
2015-Jul-25 04:33N 22°58' E 113°33'0 0.0
2015-Jul-25 02:21N 22°58' E 113°33'0 0.0
2015-Jul-25 01:33N 22°58' E 113°33'0 0.0
2015-Jul-25 00:21N 22°58' E 113°33'0 0.0
2015-Jul-24 23:33N 22°58' E 113°33'0 0.0
2015-Jul-24 22:27N 22°58' E 113°33'0 0.0
2015-Jul-24 21:27N 22°58' E 113°33'0 0.0
2015-Jul-24 20:33N 22°58' E 113°33'  
Track history (hours):
 
Tides and Currents Weather Stations Pressure Air Temp Water Temp Dewpoint Dewpoint Depression Visibility Wind Speed Wind Dir Waves Ship Positions

Solidarnosc (vanuatu)

Last reported at 2015-Aug-03 19:33 UTC. Time now 2015-Aug-04 07:27 UTC.
Position N 03°07' E 100°43'.

Length 229 m; beam 32 m.

Type: Ship. MMSI: 576005000.

Date/timePositionNaut miles runAvg speedWind from/ knotsBaromVisibWave heightAir tempDewpointWater temp
2015-Aug-03 19:33N 03°07' E 100°43'1313.2
2015-Aug-03 18:33N 02°57' E 100°52'1313.5
2015-Aug-03 17:33N 02°49' E 101°02'1313.0
2015-Aug-03 16:33N 02°43' E 101°14'2211.2
2015-Aug-03 14:33N 02°31' E 101°34'15311.7
2015-Aug-03 01:30N 01°09' E 103°43'9 9.8
2015-Aug-03 00:33N 01°12' E 103°51'10 9.7
2015-Aug-02 23:33N 01°15' E 104°00'5 5.3
2015-Aug-02 22:33N 01°18' E 104°05'0 0.1
2015-Aug-02 21:06N 01°18' E 104°05'0 0.0
2015-Aug-02 20:15N 01°18' E 104°05'0 0.0
2015-Aug-02 19:27N 01°18' E 104°05'0 0.1
2015-Aug-02 18:30N 01°18' E 104°05'0 0.0
2015-Aug-02 12:18N 01°18' E 104°05'2 2.1
2015-Aug-02 11:33N 01°17' E 104°06'5 5.1
2015-Aug-02 10:32N 01°18' E 104°11'  
2015-Jul-28 08:33N 22°07' E 113°48'10 9.7
2015-Jul-28 07:33N 22°17' E 113°48'1212.0
2015-Jul-28 06:33N 22°29' E 113°45'1412.6
2015-Jul-28 05:29N 22°42' E 113°41'1111.5
2015-Jul-28 04:32N 22°51' E 113°34'8 8.0
2015-Jul-28 03:33N 22°58' E 113°33'0 0.0
2015-Jul-28 02:09N 22°58' E 113°33'0 0.0
2015-Jul-28 01:15N 22°58' E 113°33'0 0.0
2015-Jul-28 00:33N 22°58' E 113°33'0 0.0
2015-Jul-27 23:27N 22°58' E 113°33'0 0.0
2015-Jul-27 22:33N 22°58' E 113°33'0 0.0
2015-Jul-27 21:33N 22°58' E 113°33'0 0.0
2015-Jul-27 20:27N 22°58' E 113°33'0 0.0
2015-Jul-27 19:33N 22°58' E 113°33'0 0.0
2015-Jul-27 18:09N 22°58' E 113°33'0 0.0
2015-Jul-27 17:21N 22°58' E 113°33'0 0.0
2015-Jul-27 16:27N 22°58' E 113°33'0 0.0
2015-Jul-27 14:33N 22°58' E 113°33'0 0.0
2015-Jul-27 13:33N 22°58' E 113°33'0 0.0
2015-Jul-27 12:33N 22°58' E 113°33'0 0.0
2015-Jul-27 11:33N 22°58' E 113°33'0 0.0
2015-Jul-27 10:33N 22°58' E 113°33'0 0.0
2015-Jul-27 09:27N 22°58' E 113°33'0 0.0
2015-Jul-27 07:21N 22°58' E 113°33'0 0.1
2015-Jul-27 06:27N 22°58' E 113°33'0 0.0
2015-Jul-27 05:33N 22°58' E 113°33'0 0.0
2015-Jul-27 04:33N 22°58' E 113°33'0 0.0
2015-Jul-27 03:33N 22°58' E 113°33'0 0.0
2015-Jul-27 02:21N 22°58' E 113°33'0 0.0
2015-Jul-27 01:33N 22°58' E 113°33'0 0.0
2015-Jul-27 00:33N 22°58' E 113°33'0 0.0
2015-Jul-26 23:15N 22°58' E 113°33'0 0.0
2015-Jul-26 22:15N 22°58' E 113°33'0 0.1
2015-Jul-26 21:33N 22°58' E 113°33'0 0.1
2015-Jul-26 20:33N 22°58' E 113°33'0 0.0
2015-Jul-26 19:33N 22°58' E 113°33'0 0.0
2015-Jul-26 18:33N 22°58' E 113°33'0 0.0
2015-Jul-26 17:33N 22°58' E 113°33'0 0.0
2015-Jul-26 16:27N 22°58' E 113°33'0 0.0
2015-Jul-26 15:33N 22°58' E 113°33'0 0.1
2015-Jul-26 14:27N 22°58' E 113°33'0 0.1
2015-Jul-26 13:27N 22°58' E 113°33'0 0.0
2015-Jul-26 12:33N 22°58' E 113°33'0 0.0
2015-Jul-26 11:33N 22°58' E 113°33'0 0.0
2015-Jul-26 10:27N 22°58' E 113°33'0 0.0
2015-Jul-26 09:27N 22°58' E 113°33'0 0.0
2015-Jul-26 08:33N 22°58' E 113°33'0 0.0
2015-Jul-26 07:33N 22°58' E 113°33'0 0.0
2015-Jul-26 06:33N 22°58' E 113°33'0 0.0
2015-Jul-26 05:33N 22°58' E 113°33'0 0.0
2015-Jul-26 04:27N 22°58' E 113°33'0 0.0
2015-Jul-26 03:27N 22°58' E 113°33'0 0.0
2015-Jul-26 02:33N 22°58' E 113°33'0 0.0
2015-Jul-26 01:33N 22°58' E 113°33'0 0.1
2015-Jul-26 00:27N 22°58' E 113°33'0 0.1
2015-Jul-25 23:33N 22°58' E 113°33'0 0.0
2015-Jul-25 22:33N 22°58' E 113°33'0 0.0
2015-Jul-25 21:27N 22°58' E 113°33'0 0.0
2015-Jul-25 20:33N 22°58' E 113°33'0 0.0
2015-Jul-25 19:33N 22°58' E 113°33'0 0.0
2015-Jul-25 18:27N 22°58' E 113°33'0 0.0
2015-Jul-25 17:09N 22°58' E 113°33'0 0.0
2015-Jul-25 16:27N 22°58' E 113°33'0 0.0
2015-Jul-25 15:33N 22°58' E 113°33'0 0.1
2015-Jul-25 14:33N 22°58' E 113°33'0 0.1
2015-Jul-25 13:27N 22°58' E 113°33'0 0.0
2015-Jul-25 12:27N 22°58' E 113°33'0 0.0
2015-Jul-25 11:33N 22°58' E 113°33'0 0.0
2015-Jul-25 10:15N 22°58' E 113°33'0 0.0
2015-Jul-25 09:33N 22°58' E 113°33'0 0.0
2015-Jul-25 08:21N 22°58' E 113°33'0 0.0
2015-Jul-25 07:27N 22°58' E 113°33'0 0.0
2015-Jul-25 06:27N 22°58' E 113°33'0 0.0
2015-Jul-25 05:33N 22°58' E 113°33'0 0.0
2015-Jul-25 04:33N 22°58' E 113°33'0 0.0
2015-Jul-25 02:21N 22°58' E 113°33'0 0.0
2015-Jul-25 01:33N 22°58' E 113°33'0 0.0
2015-Jul-25 00:21N 22°58' E 113°33'0 0.0
2015-Jul-24 23:33N 22°58' E 113°33'0 0.0
2015-Jul-24 22:27N 22°58' E 113°33'0 0.0
2015-Jul-24 21:27N 22°58' E 113°33'0 0.0
2015-Jul-24 20:33N 22°58' E 113°33'  

Dump ship's entire track history